sensor_id;sensor_type;location;lat;lon;timestamp;P1;durP1;ratioP1;P2;durP2;ratioP2
10295;SDS011;5193;51.032;6.356;2023-04-25T00:00:50;11.67;;;4.90;;
10295;SDS011;5193;51.032;6.356;2023-04-25T00:03:17;12.43;;;5.00;;
10295;SDS011;5193;51.032;6.356;2023-04-25T00:05:43;14.20;;;5.43;;
10295;SDS011;5193;51.032;6.356;2023-04-25T00:08:10;11.57;;;4.67;;
10295;SDS011;5193;51.032;6.356;2023-04-25T00:10:36;9.40;;;4.50;;
10295;SDS011;5193;51.032;6.356;2023-04-25T00:13:01;11.90;;;4.27;;
10295;SDS011;5193;51.032;6.356;2023-04-25T00:15:27;13.93;;;5.20;;
10295;SDS011;5193;51.032;6.356;2023-04-25T00:17:55;12.37;;;4.43;;
10295;SDS011;5193;51.032;6.356;2023-04-25T00:20:21;13.63;;;4.60;;
10295;SDS011;5193;51.032;6.356;2023-04-25T00:22:48;15.33;;;4.57;;
10295;SDS011;5193;51.032;6.356;2023-04-25T00:25:14;11.87;;;4.07;;
10295;SDS011;5193;51.032;6.356;2023-04-25T00:27:40;12.03;;;4.07;;
10295;SDS011;5193;51.032;6.356;2023-04-25T00:30:06;13.77;;;4.30;;
10295;SDS011;5193;51.032;6.356;2023-04-25T00:32:33;13.50;;;4.07;;
10295;SDS011;5193;51.032;6.356;2023-04-25T00:34:58;12.10;;;4.17;;
10295;SDS011;5193;51.032;6.356;2023-04-25T00:37:24;8.43;;;4.07;;
10295;SDS011;5193;51.032;6.356;2023-04-25T00:39:50;11.80;;;4.70;;
10295;SDS011;5193;51.032;6.356;2023-04-25T00:42:18;10.80;;;3.53;;
10295;SDS011;5193;51.032;6.356;2023-04-25T00:44:44;9.33;;;4.13;;
10295;SDS011;5193;51.032;6.356;2023-04-25T00:47:10;7.73;;;4.20;;
10295;SDS011;5193;51.032;6.356;2023-04-25T00:49:36;15.73;;;4.17;;
10295;SDS011;5193;51.032;6.356;2023-04-25T00:52:02;14.53;;;3.57;;
10295;SDS011;5193;51.032;6.356;2023-04-25T00:54:27;11.93;;;4.20;;
10295;SDS011;5193;51.032;6.356;2023-04-25T00:56:53;8.40;;;4.30;;
10295;SDS011;5193;51.032;6.356;2023-04-25T00:59:19;10.93;;;4.43;;
10295;SDS011;5193;51.032;6.356;2023-04-25T01:01:45;13.33;;;4.20;;
10295;SDS011;5193;51.032;6.356;2023-04-25T01:04:11;11.97;;;4.27;;
10295;SDS011;5193;51.032;6.356;2023-04-25T01:06:37;11.10;;;4.20;;
10295;SDS011;5193;51.032;6.356;2023-04-25T01:09:03;14.97;;;4.73;;
10295;SDS011;5193;51.032;6.356;2023-04-25T01:11:29;12.67;;;4.57;;
10295;SDS011;5193;51.032;6.356;2023-04-25T01:13:55;11.00;;;4.63;;
10295;SDS011;5193;51.032;6.356;2023-04-25T01:16:21;9.83;;;4.50;;
10295;SDS011;5193;51.032;6.356;2023-04-25T01:18:49;11.10;;;4.50;;
10295;SDS011;5193;51.032;6.356;2023-04-25T01:21:16;15.77;;;5.23;;
10295;SDS011;5193;51.032;6.356;2023-04-25T01:23:42;11.80;;;4.70;;
10295;SDS011;5193;51.032;6.356;2023-04-25T01:26:09;12.10;;;4.90;;
10295;SDS011;5193;51.032;6.356;2023-04-25T01:28:35;11.50;;;4.23;;
10295;SDS011;5193;51.032;6.356;2023-04-25T01:31:02;13.57;;;4.70;;
10295;SDS011;5193;51.032;6.356;2023-04-25T01:33:28;11.27;;;4.10;;
10295;SDS011;5193;51.032;6.356;2023-04-25T01:35:54;10.10;;;4.73;;
10295;SDS011;5193;51.032;6.356;2023-04-25T01:38:20;9.07;;;4.33;;
10295;SDS011;5193;51.032;6.356;2023-04-25T01:40:46;14.20;;;4.33;;
10295;SDS011;5193;51.032;6.356;2023-04-25T01:43:12;13.67;;;4.10;;
10295;SDS011;5193;51.032;6.356;2023-04-25T01:45:39;15.37;;;4.37;;
10295;SDS011;5193;51.032;6.356;2023-04-25T01:48:06;8.43;;;3.77;;
10295;SDS011;5193;51.032;6.356;2023-04-25T01:50:32;11.10;;;3.70;;
10295;SDS011;5193;51.032;6.356;2023-04-25T01:52:58;10.10;;;4.03;;
10295;SDS011;5193;51.032;6.356;2023-04-25T01:55:24;12.70;;;4.10;;
10295;SDS011;5193;51.032;6.356;2023-04-25T01:57:51;15.77;;;4.53;;
10295;SDS011;5193;51.032;6.356;2023-04-25T02:00:16;10.97;;;4.40;;
10295;SDS011;5193;51.032;6.356;2023-04-25T02:02:42;12.57;;;4.23;;
10295;SDS011;5193;51.032;6.356;2023-04-25T02:05:08;10.23;;;4.13;;
10295;SDS011;5193;51.032;6.356;2023-04-25T02:07:33;12.33;;;4.60;;
10295;SDS011;5193;51.032;6.356;2023-04-25T02:09:59;10.97;;;4.30;;
10295;SDS011;5193;51.032;6.356;2023-04-25T02:12:25;11.37;;;4.90;;
10295;SDS011;5193;51.032;6.356;2023-04-25T02:14:51;13.60;;;4.80;;
10295;SDS011;5193;51.032;6.356;2023-04-25T02:17:17;9.33;;;4.43;;
10295;SDS011;5193;51.032;6.356;2023-04-25T02:19:43;17.63;;;4.80;;
10295;SDS011;5193;51.032;6.356;2023-04-25T02:22:09;14.53;;;4.77;;
10295;SDS011;5193;51.032;6.356;2023-04-25T02:24:35;14.33;;;4.90;;
10295;SDS011;5193;51.032;6.356;2023-04-25T02:27:01;10.37;;;4.70;;
10295;SDS011;5193;51.032;6.356;2023-04-25T02:29:27;15.07;;;4.47;;
10295;SDS011;5193;51.032;6.356;2023-04-25T02:31:52;13.80;;;5.20;;
10295;SDS011;5193;51.032;6.356;2023-04-25T02:34:18;16.50;;;4.87;;
10295;SDS011;5193;51.032;6.356;2023-04-25T02:36:43;12.17;;;4.40;;
10295;SDS011;5193;51.032;6.356;2023-04-25T02:39:09;12.83;;;5.03;;
10295;SDS011;5193;51.032;6.356;2023-04-25T02:41:35;10.93;;;4.53;;
10295;SDS011;5193;51.032;6.356;2023-04-25T02:44:01;12.07;;;4.83;;
10295;SDS011;5193;51.032;6.356;2023-04-25T02:46:26;15.43;;;5.33;;
10295;SDS011;5193;51.032;6.356;2023-04-25T02:48:52;11.97;;;5.20;;
10295;SDS011;5193;51.032;6.356;2023-04-25T02:51:17;13.20;;;4.77;;
10295;SDS011;5193;51.032;6.356;2023-04-25T02:53:43;13.73;;;5.07;;
10295;SDS011;5193;51.032;6.356;2023-04-25T02:56:09;12.40;;;5.40;;
10295;SDS011;5193;51.032;6.356;2023-04-25T02:58:34;15.37;;;5.20;;
10295;SDS011;5193;51.032;6.356;2023-04-25T03:01:00;13.50;;;4.77;;
10295;SDS011;5193;51.032;6.356;2023-04-25T03:03:25;13.63;;;5.87;;
10295;SDS011;5193;51.032;6.356;2023-04-25T03:05:51;13.47;;;5.67;;
10295;SDS011;5193;51.032;6.356;2023-04-25T03:08:17;15.43;;;5.57;;
10295;SDS011;5193;51.032;6.356;2023-04-25T03:10:43;19.30;;;5.50;;
10295;SDS011;5193;51.032;6.356;2023-04-25T03:13:10;12.30;;;5.10;;
10295;SDS011;5193;51.032;6.356;2023-04-25T03:15:36;12.00;;;5.57;;
10295;SDS011;5193;51.032;6.356;2023-04-25T03:18:02;11.60;;;4.87;;
10295;SDS011;5193;51.032;6.356;2023-04-25T03:20:27;14.60;;;5.67;;
10295;SDS011;5193;51.032;6.356;2023-04-25T03:22:53;12.20;;;5.20;;
10295;SDS011;5193;51.032;6.356;2023-04-25T03:25:19;15.80;;;5.60;;
10295;SDS011;5193;51.032;6.356;2023-04-25T03:27:45;9.73;;;4.87;;
10295;SDS011;5193;51.032;6.356;2023-04-25T03:30:11;11.97;;;5.00;;
10295;SDS011;5193;51.032;6.356;2023-04-25T03:32:37;13.90;;;4.73;;
10295;SDS011;5193;51.032;6.356;2023-04-25T03:35:02;18.57;;;5.33;;
10295;SDS011;5193;51.032;6.356;2023-04-25T03:37:28;17.23;;;5.77;;
10295;SDS011;5193;51.032;6.356;2023-04-25T03:39:54;13.00;;;5.57;;
10295;SDS011;5193;51.032;6.356;2023-04-25T03:42:19;17.47;;;5.20;;
10295;SDS011;5193;51.032;6.356;2023-04-25T03:44:47;11.13;;;4.43;;
10295;SDS011;5193;51.032;6.356;2023-04-25T03:47:13;11.73;;;5.23;;
10295;SDS011;5193;51.032;6.356;2023-04-25T03:49:39;12.97;;;4.53;;
10295;SDS011;5193;51.032;6.356;2023-04-25T03:52:04;11.83;;;4.77;;
10295;SDS011;5193;51.032;6.356;2023-04-25T03:54:30;13.07;;;5.10;;
10295;SDS011;5193;51.032;6.356;2023-04-25T03:56:56;17.73;;;5.30;;
10295;SDS011;5193;51.032;6.356;2023-04-25T03:59:21;12.40;;;5.10;;
10295;SDS011;5193;51.032;6.356;2023-04-25T04:01:47;7.57;;;4.30;;
10295;SDS011;5193;51.032;6.356;2023-04-25T04:04:12;16.30;;;4.63;;
10295;SDS011;5193;51.032;6.356;2023-04-25T04:06:38;20.07;;;4.90;;
10295;SDS011;5193;51.032;6.356;2023-04-25T04:09:04;13.50;;;4.87;;
10295;SDS011;5193;51.032;6.356;2023-04-25T04:11:30;17.03;;;5.10;;
10295;SDS011;5193;51.032;6.356;2023-04-25T04:13:57;14.37;;;5.10;;
10295;SDS011;5193;51.032;6.356;2023-04-25T04:16:22;12.27;;;5.27;;
10295;SDS011;5193;51.032;6.356;2023-04-25T04:18:48;13.37;;;5.27;;
10295;SDS011;5193;51.032;6.356;2023-04-25T04:21:13;16.33;;;5.97;;
10295;SDS011;5193;51.032;6.356;2023-04-25T04:23:39;17.33;;;5.67;;
10295;SDS011;5193;51.032;6.356;2023-04-25T04:26:05;19.70;;;6.37;;
10295;SDS011;5193;51.032;6.356;2023-04-25T04:28:33;16.77;;;5.37;;
10295;SDS011;5193;51.032;6.356;2023-04-25T04:31:00;14.10;;;5.33;;
10295;SDS011;5193;51.032;6.356;2023-04-25T04:33:27;14.40;;;4.83;;
10295;SDS011;5193;51.032;6.356;2023-04-25T04:35:53;9.93;;;5.03;;
10295;SDS011;5193;51.032;6.356;2023-04-25T04:38:20;12.90;;;4.87;;
10295;SDS011;5193;51.032;6.356;2023-04-25T04:40:46;15.43;;;5.57;;
10295;SDS011;5193;51.032;6.356;2023-04-25T04:43:12;13.60;;;5.83;;
10295;SDS011;5193;51.032;6.356;2023-04-25T04:45:38;15.20;;;5.17;;
10295;SDS011;5193;51.032;6.356;2023-04-25T04:48:05;16.17;;;5.47;;
10295;SDS011;5193;51.032;6.356;2023-04-25T04:50:31;20.67;;;5.80;;
10295;SDS011;5193;51.032;6.356;2023-04-25T04:53:00;16.77;;;5.43;;
10295;SDS011;5193;51.032;6.356;2023-04-25T04:55:27;18.13;;;5.63;;
10295;SDS011;5193;51.032;6.356;2023-04-25T04:57:52;16.47;;;5.43;;
10295;SDS011;5193;51.032;6.356;2023-04-25T05:00:18;23.00;;;5.87;;
10295;SDS011;5193;51.032;6.356;2023-04-25T05:02:44;12.27;;;5.03;;
10295;SDS011;5193;51.032;6.356;2023-04-25T05:05:09;14.07;;;5.03;;
10295;SDS011;5193;51.032;6.356;2023-04-25T05:07:35;13.83;;;5.10;;
10295;SDS011;5193;51.032;6.356;2023-04-25T05:10:00;13.53;;;5.23;;
10295;SDS011;5193;51.032;6.356;2023-04-25T05:12:26;16.93;;;6.10;;
10295;SDS011;5193;51.032;6.356;2023-04-25T05:14:52;12.17;;;5.23;;
10295;SDS011;5193;51.032;6.356;2023-04-25T05:17:17;14.40;;;4.97;;
10295;SDS011;5193;51.032;6.356;2023-04-25T05:19:43;18.77;;;5.13;;
10295;SDS011;5193;51.032;6.356;2023-04-25T05:22:09;22.87;;;6.20;;
10295;SDS011;5193;51.032;6.356;2023-04-25T05:24:34;14.30;;;5.30;;
10295;SDS011;5193;51.032;6.356;2023-04-25T05:27:00;13.87;;;4.93;;
10295;SDS011;5193;51.032;6.356;2023-04-25T05:29:25;18.67;;;6.00;;
10295;SDS011;5193;51.032;6.356;2023-04-25T05:31:51;9.43;;;4.83;;
10295;SDS011;5193;51.032;6.356;2023-04-25T05:34:16;20.73;;;5.20;;
10295;SDS011;5193;51.032;6.356;2023-04-25T05:36:42;14.53;;;5.17;;
10295;SDS011;5193;51.032;6.356;2023-04-25T05:39:07;16.13;;;5.60;;
10295;SDS011;5193;51.032;6.356;2023-04-25T05:41:33;16.03;;;5.20;;
10295;SDS011;5193;51.032;6.356;2023-04-25T05:43:59;12.53;;;4.83;;
10295;SDS011;5193;51.032;6.356;2023-04-25T05:46:24;18.33;;;5.17;;
10295;SDS011;5193;51.032;6.356;2023-04-25T05:48:50;18.00;;;5.10;;
10295;SDS011;5193;51.032;6.356;2023-04-25T05:51:16;16.43;;;4.60;;
10295;SDS011;5193;51.032;6.356;2023-04-25T05:53:43;13.27;;;4.27;;
10295;SDS011;5193;51.032;6.356;2023-04-25T05:56:08;16.53;;;4.77;;
10295;SDS011;5193;51.032;6.356;2023-04-25T05:58:34;24.37;;;4.90;;
10295;SDS011;5193;51.032;6.356;2023-04-25T06:01:01;19.40;;;5.50;;
10295;SDS011;5193;51.032;6.356;2023-04-25T06:03:27;18.33;;;4.50;;
10295;SDS011;5193;51.032;6.356;2023-04-25T06:05:53;20.10;;;4.70;;
10295;SDS011;5193;51.032;6.356;2023-04-25T06:08:18;20.40;;;4.67;;
10295;SDS011;5193;51.032;6.356;2023-04-25T06:10:44;15.53;;;4.97;;
10295;SDS011;5193;51.032;6.356;2023-04-25T06:13:10;11.00;;;4.10;;
10295;SDS011;5193;51.032;6.356;2023-04-25T06:15:35;16.17;;;4.90;;
10295;SDS011;5193;51.032;6.356;2023-04-25T06:18:01;14.17;;;4.57;;
10295;SDS011;5193;51.032;6.356;2023-04-25T06:20:27;15.97;;;4.00;;
10295;SDS011;5193;51.032;6.356;2023-04-25T06:22:52;18.77;;;3.80;;
10295;SDS011;5193;51.032;6.356;2023-04-25T06:25:18;13.07;;;3.97;;
10295;SDS011;5193;51.032;6.356;2023-04-25T06:27:44;10.87;;;3.87;;
10295;SDS011;5193;51.032;6.356;2023-04-25T06:30:09;12.43;;;4.23;;
10295;SDS011;5193;51.032;6.356;2023-04-25T06:32:37;16.70;;;3.47;;
10295;SDS011;5193;51.032;6.356;2023-04-25T06:35:03;10.73;;;3.50;;
10295;SDS011;5193;51.032;6.356;2023-04-25T06:37:28;14.87;;;4.27;;
10295;SDS011;5193;51.032;6.356;2023-04-25T06:39:55;16.03;;;3.87;;
10295;SDS011;5193;51.032;6.356;2023-04-25T06:42:20;11.83;;;3.53;;
10295;SDS011;5193;51.032;6.356;2023-04-25T06:44:46;16.87;;;4.10;;
10295;SDS011;5193;51.032;6.356;2023-04-25T06:47:11;11.60;;;3.40;;
10295;SDS011;5193;51.032;6.356;2023-04-25T06:49:37;11.13;;;3.53;;
10295;SDS011;5193;51.032;6.356;2023-04-25T06:52:02;9.93;;;3.50;;
10295;SDS011;5193;51.032;6.356;2023-04-25T06:54:28;12.53;;;3.47;;
10295;SDS011;5193;51.032;6.356;2023-04-25T06:56:54;15.70;;;3.60;;
10295;SDS011;5193;51.032;6.356;2023-04-25T06:59:20;16.30;;;3.93;;
10295;SDS011;5193;51.032;6.356;2023-04-25T07:01:46;13.77;;;3.47;;
10295;SDS011;5193;51.032;6.356;2023-04-25T07:04:12;11.73;;;3.57;;
10295;SDS011;5193;51.032;6.356;2023-04-25T07:06:37;9.87;;;2.90;;
10295;SDS011;5193;51.032;6.356;2023-04-25T07:09:07;21.93;;;4.40;;
10295;SDS011;5193;51.032;6.356;2023-04-25T07:11:36;14.87;;;3.20;;
10295;SDS011;5193;51.032;6.356;2023-04-25T07:14:02;12.07;;;3.30;;
10295;SDS011;5193;51.032;6.356;2023-04-25T07:16:28;12.13;;;3.27;;
10295;SDS011;5193;51.032;6.356;2023-04-25T07:18:54;10.17;;;3.23;;
10295;SDS011;5193;51.032;6.356;2023-04-25T07:21:19;10.13;;;3.23;;
10295;SDS011;5193;51.032;6.356;2023-04-25T07:23:45;15.17;;;3.63;;
10295;SDS011;5193;51.032;6.356;2023-04-25T07:26:10;17.03;;;3.80;;
10295;SDS011;5193;51.032;6.356;2023-04-25T07:28:36;12.73;;;2.80;;
10295;SDS011;5193;51.032;6.356;2023-04-25T07:31:01;12.57;;;3.83;;
10295;SDS011;5193;51.032;6.356;2023-04-25T07:33:27;12.03;;;3.83;;
10295;SDS011;5193;51.032;6.356;2023-04-25T07:35:53;8.83;;;3.13;;
10295;SDS011;5193;51.032;6.356;2023-04-25T07:38:20;12.57;;;3.13;;
10295;SDS011;5193;51.032;6.356;2023-04-25T07:40:47;9.20;;;2.90;;
10295;SDS011;5193;51.032;6.356;2023-04-25T07:43:13;9.00;;;2.17;;
10295;SDS011;5193;51.032;6.356;2023-04-25T07:45:41;9.17;;;2.57;;
10295;SDS011;5193;51.032;6.356;2023-04-25T07:48:07;14.30;;;2.67;;
10295;SDS011;5193;51.032;6.356;2023-04-25T07:50:33;7.80;;;2.63;;
10295;SDS011;5193;51.032;6.356;2023-04-25T07:52:58;18.70;;;2.53;;
10295;SDS011;5193;51.032;6.356;2023-04-25T07:55:24;12.13;;;2.37;;
10295;SDS011;5193;51.032;6.356;2023-04-25T07:57:49;8.40;;;2.60;;
10295;SDS011;5193;51.032;6.356;2023-04-25T08:00:15;8.83;;;2.17;;
10295;SDS011;5193;51.032;6.356;2023-04-25T08:02:41;8.27;;;2.20;;
10295;SDS011;5193;51.032;6.356;2023-04-25T08:05:07;8.03;;;2.33;;
10295;SDS011;5193;51.032;6.356;2023-04-25T08:07:36;11.23;;;2.57;;
10295;SDS011;5193;51.032;6.356;2023-04-25T08:10:02;9.57;;;2.57;;
10295;SDS011;5193;51.032;6.356;2023-04-25T08:12:28;13.33;;;2.80;;
10295;SDS011;5193;51.032;6.356;2023-04-25T08:14:54;9.40;;;3.13;;
10295;SDS011;5193;51.032;6.356;2023-04-25T08:17:19;7.73;;;2.43;;
10295;SDS011;5193;51.032;6.356;2023-04-25T08:19:45;7.97;;;2.97;;
10295;SDS011;5193;51.032;6.356;2023-04-25T08:22:10;12.13;;;3.07;;
10295;SDS011;5193;51.032;6.356;2023-04-25T08:24:37;8.33;;;2.50;;
10295;SDS011;5193;51.032;6.356;2023-04-25T08:27:03;6.47;;;1.97;;
10295;SDS011;5193;51.032;6.356;2023-04-25T08:29:28;9.00;;;2.03;;
10295;SDS011;5193;51.032;6.356;2023-04-25T08:31:54;9.73;;;2.17;;
10295;SDS011;5193;51.032;6.356;2023-04-25T08:34:19;8.57;;;2.43;;
10295;SDS011;5193;51.032;6.356;2023-04-25T08:36:45;7.27;;;2.13;;
10295;SDS011;5193;51.032;6.356;2023-04-25T08:39:11;11.63;;;2.60;;
10295;SDS011;5193;51.032;6.356;2023-04-25T08:41:37;10.07;;;2.13;;
10295;SDS011;5193;51.032;6.356;2023-04-25T08:44:03;17.57;;;3.10;;
10295;SDS011;5193;51.032;6.356;2023-04-25T08:46:30;10.80;;;2.40;;
10295;SDS011;5193;51.032;6.356;2023-04-25T08:48:59;6.77;;;2.27;;
10295;SDS011;5193;51.032;6.356;2023-04-25T08:51:26;17.80;;;2.37;;
10295;SDS011;5193;51.032;6.356;2023-04-25T08:53:55;9.20;;;2.33;;
10295;SDS011;5193;51.032;6.356;2023-04-25T08:56:27;9.67;;;2.30;;
10295;SDS011;5193;51.032;6.356;2023-04-25T08:58:53;8.07;;;2.23;;
10295;SDS011;5193;51.032;6.356;2023-04-25T09:01:20;8.90;;;2.50;;
10295;SDS011;5193;51.032;6.356;2023-04-25T09:03:46;9.13;;;2.17;;
10295;SDS011;5193;51.032;6.356;2023-04-25T09:06:12;8.57;;;2.60;;
10295;SDS011;5193;51.032;6.356;2023-04-25T09:08:38;7.63;;;1.53;;
10295;SDS011;5193;51.032;6.356;2023-04-25T09:11:06;9.67;;;2.47;;
10295;SDS011;5193;51.032;6.356;2023-04-25T09:13:32;11.47;;;2.23;;
10295;SDS011;5193;51.032;6.356;2023-04-25T09:15:58;8.70;;;2.27;;
10295;SDS011;5193;51.032;6.356;2023-04-25T09:18:30;9.10;;;1.70;;
10295;SDS011;5193;51.032;6.356;2023-04-25T09:21:07;5.53;;;1.60;;
10295;SDS011;5193;51.032;6.356;2023-04-25T09:26:09;5.40;;;2.00;;
10295;SDS011;5193;51.032;6.356;2023-04-25T09:28:35;7.57;;;2.47;;
10295;SDS011;5193;51.032;6.356;2023-04-25T09:31:02;7.93;;;2.23;;
10295;SDS011;5193;51.032;6.356;2023-04-25T09:33:29;6.10;;;1.90;;
10295;SDS011;5193;51.032;6.356;2023-04-25T09:36:03;7.17;;;2.50;;
10295;SDS011;5193;51.032;6.356;2023-04-25T09:38:31;7.90;;;2.40;;
10295;SDS011;5193;51.032;6.356;2023-04-25T09:41:05;8.90;;;2.50;;
10295;SDS011;5193;51.032;6.356;2023-04-25T09:43:30;10.60;;;3.03;;
10295;SDS011;5193;51.032;6.356;2023-04-25T09:45:56;9.10;;;2.37;;
10295;SDS011;5193;51.032;6.356;2023-04-25T09:48:25;8.57;;;2.30;;
10295;SDS011;5193;51.032;6.356;2023-04-25T09:51:13;8.03;;;1.70;;
10295;SDS011;5193;51.032;6.356;2023-04-25T09:53:42;12.77;;;1.80;;
10295;SDS011;5193;51.032;6.356;2023-04-25T09:56:09;10.97;;;2.17;;
10295;SDS011;5193;51.032;6.356;2023-04-25T09:58:37;7.37;;;2.10;;
10295;SDS011;5193;51.032;6.356;2023-04-25T10:01:04;5.50;;;2.10;;
10295;SDS011;5193;51.032;6.356;2023-04-25T10:03:32;6.30;;;2.00;;
10295;SDS011;5193;51.032;6.356;2023-04-25T10:05:59;4.30;;;1.80;;
10295;SDS011;5193;51.032;6.356;2023-04-25T10:08:33;15.57;;;2.80;;
10295;SDS011;5193;51.032;6.356;2023-04-25T10:11:01;6.13;;;2.10;;
10295;SDS011;5193;51.032;6.356;2023-04-25T10:13:29;4.87;;;1.70;;
10295;SDS011;5193;51.032;6.356;2023-04-25T10:15:57;5.97;;;1.90;;
10295;SDS011;5193;51.032;6.356;2023-04-25T10:18:23;5.07;;;1.67;;
10295;SDS011;5193;51.032;6.356;2023-04-25T10:20:49;6.43;;;2.10;;
10295;SDS011;5193;51.032;6.356;2023-04-25T10:23:15;8.10;;;2.37;;
10295;SDS011;5193;51.032;6.356;2023-04-25T10:25:42;7.67;;;2.27;;
10295;SDS011;5193;51.032;6.356;2023-04-25T10:28:08;5.47;;;1.97;;
10295;SDS011;5193;51.032;6.356;2023-04-25T10:30:34;6.10;;;2.10;;
10295;SDS011;5193;51.032;6.356;2023-04-25T10:32:59;4.57;;;1.77;;
10295;SDS011;5193;51.032;6.356;2023-04-25T10:35:26;7.47;;;1.80;;
10295;SDS011;5193;51.032;6.356;2023-04-25T10:37:56;6.80;;;2.20;;
10295;SDS011;5193;51.032;6.356;2023-04-25T10:40:23;5.07;;;1.70;;
10295;SDS011;5193;51.032;6.356;2023-04-25T10:42:49;5.93;;;1.77;;
10295;SDS011;5193;51.032;6.356;2023-04-25T10:45:19;6.63;;;1.90;;
10295;SDS011;5193;51.032;6.356;2023-04-25T10:47:45;7.53;;;2.00;;
10295;SDS011;5193;51.032;6.356;2023-04-25T10:50:11;6.37;;;2.17;;
10295;SDS011;5193;51.032;6.356;2023-04-25T10:52:40;5.73;;;2.00;;
10295;SDS011;5193;51.032;6.356;2023-04-25T10:55:06;4.90;;;1.90;;
10295;SDS011;5193;51.032;6.356;2023-04-25T10:57:35;8.57;;;1.90;;
10295;SDS011;5193;51.032;6.356;2023-04-25T11:00:16;10.03;;;1.67;;
10295;SDS011;5193;51.032;6.356;2023-04-25T11:02:44;7.03;;;2.33;;
10295;SDS011;5193;51.032;6.356;2023-04-25T11:05:22;3.87;;;1.70;;
10295;SDS011;5193;51.032;6.356;2023-04-25T11:07:56;5.00;;;2.20;;
10295;SDS011;5193;51.032;6.356;2023-04-25T11:10:27;5.67;;;1.90;;
10295;SDS011;5193;51.032;6.356;2023-04-25T11:12:54;8.77;;;2.37;;
10295;SDS011;5193;51.032;6.356;2023-04-25T11:15:20;5.17;;;2.00;;
10295;SDS011;5193;51.032;6.356;2023-04-25T11:17:46;5.57;;;1.80;;
10295;SDS011;5193;51.032;6.356;2023-04-25T11:20:12;3.97;;;1.90;;
10295;SDS011;5193;51.032;6.356;2023-04-25T11:22:39;4.90;;;1.80;;
10295;SDS011;5193;51.032;6.356;2023-04-25T11:25:06;7.37;;;2.07;;
10295;SDS011;5193;51.032;6.356;2023-04-25T11:27:33;5.40;;;1.97;;
10295;SDS011;5193;51.032;6.356;2023-04-25T11:30:09;7.63;;;1.57;;
10295;SDS011;5193;51.032;6.356;2023-04-25T11:32:39;5.33;;;1.67;;
10295;SDS011;5193;51.032;6.356;2023-04-25T11:35:06;7.73;;;1.90;;
10295;SDS011;5193;51.032;6.356;2023-04-25T11:37:32;5.87;;;1.97;;
10295;SDS011;5193;51.032;6.356;2023-04-25T11:39:59;5.27;;;2.13;;
10295;SDS011;5193;51.032;6.356;2023-04-25T11:42:25;8.03;;;2.20;;
10295;SDS011;5193;51.032;6.356;2023-04-25T11:44:51;7.63;;;1.87;;
10295;SDS011;5193;51.032;6.356;2023-04-25T11:47:16;6.30;;;1.67;;
10295;SDS011;5193;51.032;6.356;2023-04-25T11:49:42;8.17;;;1.83;;
10295;SDS011;5193;51.032;6.356;2023-04-25T11:52:08;4.33;;;1.90;;
10295;SDS011;5193;51.032;6.356;2023-04-25T11:54:37;5.33;;;1.90;;
10295;SDS011;5193;51.032;6.356;2023-04-25T11:57:02;9.00;;;1.80;;
10295;SDS011;5193;51.032;6.356;2023-04-25T11:59:29;3.23;;;1.40;;
10295;SDS011;5193;51.032;6.356;2023-04-25T12:01:55;5.93;;;2.00;;
10295;SDS011;5193;51.032;6.356;2023-04-25T12:04:23;6.33;;;1.43;;
10295;SDS011;5193;51.032;6.356;2023-04-25T12:06:53;5.07;;;1.50;;
10295;SDS011;5193;51.032;6.356;2023-04-25T12:09:20;4.80;;;1.57;;
10295;SDS011;5193;51.032;6.356;2023-04-25T12:11:54;5.23;;;1.80;;
10295;SDS011;5193;51.032;6.356;2023-04-25T12:14:21;6.00;;;1.87;;
10295;SDS011;5193;51.032;6.356;2023-04-25T12:16:52;4.90;;;1.90;;
10295;SDS011;5193;51.032;6.356;2023-04-25T12:19:20;6.33;;;2.07;;
10295;SDS011;5193;51.032;6.356;2023-04-25T12:21:46;4.00;;;1.67;;
10295;SDS011;5193;51.032;6.356;2023-04-25T12:24:13;10.17;;;2.47;;
10295;SDS011;5193;51.032;6.356;2023-04-25T12:26:53;7.37;;;1.40;;
10295;SDS011;5193;51.032;6.356;2023-04-25T12:29:26;2.70;;;1.13;;
10295;SDS011;5193;51.032;6.356;2023-04-25T12:31:53;6.67;;;1.53;;
10295;SDS011;5193;51.032;6.356;2023-04-25T12:34:20;6.37;;;1.80;;
10295;SDS011;5193;51.032;6.356;2023-04-25T12:36:46;4.83;;;1.73;;
10295;SDS011;5193;51.032;6.356;2023-04-25T12:39:19;4.97;;;1.53;;
10295;SDS011;5193;51.032;6.356;2023-04-25T12:41:49;5.83;;;2.10;;
10295;SDS011;5193;51.032;6.356;2023-04-25T12:44:16;4.13;;;1.93;;
10295;SDS011;5193;51.032;6.356;2023-04-25T12:46:42;6.93;;;2.10;;
10295;SDS011;5193;51.032;6.356;2023-04-25T12:49:08;8.17;;;2.40;;
10295;SDS011;5193;51.032;6.356;2023-04-25T12:51:34;5.97;;;1.83;;
10295;SDS011;5193;51.032;6.356;2023-04-25T12:54:01;7.03;;;1.83;;
10295;SDS011;5193;51.032;6.356;2023-04-25T12:56:27;4.93;;;2.10;;
10295;SDS011;5193;51.032;6.356;2023-04-25T12:58:54;5.17;;;1.87;;
10295;SDS011;5193;51.032;6.356;2023-04-25T13:01:20;8.13;;;1.87;;
10295;SDS011;5193;51.032;6.356;2023-04-25T13:03:46;7.10;;;2.13;;
10295;SDS011;5193;51.032;6.356;2023-04-25T13:06:13;8.90;;;2.33;;
10295;SDS011;5193;51.032;6.356;2023-04-25T13:08:39;5.90;;;1.60;;
10295;SDS011;5193;51.032;6.356;2023-04-25T13:11:06;2.37;;;1.27;;
10295;SDS011;5193;51.032;6.356;2023-04-25T13:13:32;3.27;;;1.30;;
10295;SDS011;5193;51.032;6.356;2023-04-25T13:15:59;2.67;;;1.30;;
10295;SDS011;5193;51.032;6.356;2023-04-25T13:18:28;3.87;;;1.57;;
10295;SDS011;5193;51.032;6.356;2023-04-25T13:20:54;4.70;;;1.10;;
10295;SDS011;5193;51.032;6.356;2023-04-25T13:23:20;3.13;;;1.33;;
10295;SDS011;5193;51.032;6.356;2023-04-25T13:25:46;5.17;;;1.47;;
10295;SDS011;5193;51.032;6.356;2023-04-25T13:28:12;3.10;;;1.30;;
10295;SDS011;5193;51.032;6.356;2023-04-25T13:30:38;5.33;;;1.33;;
10295;SDS011;5193;51.032;6.356;2023-04-25T13:33:04;4.80;;;1.70;;
10295;SDS011;5193;51.032;6.356;2023-04-25T13:35:31;4.30;;;1.70;;
10295;SDS011;5193;51.032;6.356;2023-04-25T13:37:58;4.67;;;1.60;;
10295;SDS011;5193;51.032;6.356;2023-04-25T13:40:24;4.37;;;1.73;;
10295;SDS011;5193;51.032;6.356;2023-04-25T13:42:50;3.93;;;1.50;;
10295;SDS011;5193;51.032;6.356;2023-04-25T13:45:16;2.70;;;1.20;;
10295;SDS011;5193;51.032;6.356;2023-04-25T13:47:41;4.70;;;1.50;;
10295;SDS011;5193;51.032;6.356;2023-04-25T13:50:07;6.87;;;1.60;;
10295;SDS011;5193;51.032;6.356;2023-04-25T13:52:33;5.43;;;1.63;;
10295;SDS011;5193;51.032;6.356;2023-04-25T13:55:00;5.47;;;1.20;;
10295;SDS011;5193;51.032;6.356;2023-04-25T13:57:28;4.17;;;1.43;;
10295;SDS011;5193;51.032;6.356;2023-04-25T13:59:53;3.60;;;1.20;;
10295;SDS011;5193;51.032;6.356;2023-04-25T14:02:19;3.53;;;1.37;;
10295;SDS011;5193;51.032;6.356;2023-04-25T14:04:45;5.17;;;1.30;;
10295;SDS011;5193;51.032;6.356;2023-04-25T14:07:10;2.23;;;1.10;;
10295;SDS011;5193;51.032;6.356;2023-04-25T14:09:36;3.10;;;1.17;;
10295;SDS011;5193;51.032;6.356;2023-04-25T14:12:02;3.77;;;1.33;;
10295;SDS011;5193;51.032;6.356;2023-04-25T14:14:28;3.57;;;1.20;;
10295;SDS011;5193;51.032;6.356;2023-04-25T14:16:53;5.47;;;1.50;;
10295;SDS011;5193;51.032;6.356;2023-04-25T14:19:20;2.53;;;1.10;;
10295;SDS011;5193;51.032;6.356;2023-04-25T14:21:45;2.50;;;1.10;;
10295;SDS011;5193;51.032;6.356;2023-04-25T14:24:11;3.90;;;1.37;;
10295;SDS011;5193;51.032;6.356;2023-04-25T14:26:38;3.77;;;1.23;;
10295;SDS011;5193;51.032;6.356;2023-04-25T14:29:04;2.60;;;1.17;;
10295;SDS011;5193;51.032;6.356;2023-04-25T14:31:33;5.03;;;1.27;;
10295;SDS011;5193;51.032;6.356;2023-04-25T14:34:00;1.83;;;0.73;;
10295;SDS011;5193;51.032;6.356;2023-04-25T14:36:29;2.50;;;0.93;;
10295;SDS011;5193;51.032;6.356;2023-04-25T14:38:55;5.87;;;1.13;;
10295;SDS011;5193;51.032;6.356;2023-04-25T14:41:21;2.07;;;0.90;;
10295;SDS011;5193;51.032;6.356;2023-04-25T14:43:48;3.53;;;1.10;;
10295;SDS011;5193;51.032;6.356;2023-04-25T14:46:13;2.10;;;0.90;;
10295;SDS011;5193;51.032;6.356;2023-04-25T14:48:39;4.13;;;1.30;;
10295;SDS011;5193;51.032;6.356;2023-04-25T14:51:05;7.43;;;1.33;;
10295;SDS011;5193;51.032;6.356;2023-04-25T14:53:31;2.77;;;1.00;;